createdAt,value
2022-11-14T00:02:03.398Z,16.85
2022-11-14T00:04:49.004Z,16.63
2022-11-14T00:07:34.941Z,17.10
2022-11-14T00:10:21.077Z,16.63
2022-11-14T00:13:06.858Z,15.77
2022-11-14T00:15:55.936Z,16.65
2022-11-14T00:18:41.629Z,16.88
2022-11-14T00:21:27.583Z,17.23
2022-11-14T00:24:13.408Z,17.23
2022-11-14T00:26:59.376Z,17.55
2022-11-14T00:29:45.255Z,17.70
2022-11-14T00:32:31.369Z,17.23
2022-11-14T00:35:17.353Z,19.23
2022-11-14T00:38:02.964Z,18.92
2022-11-14T00:40:49.028Z,18.67
2022-11-14T00:43:35.026Z,17.92
2022-11-14T00:46:20.885Z,18.25
2022-11-14T00:49:07.011Z,21.92
2022-11-14T00:51:52.590Z,18.52
2022-11-14T00:54:38.511Z,18.00
2022-11-14T00:57:24.582Z,18.08
2022-11-14T01:00:11.695Z,21.85
2022-11-14T01:02:58.217Z,18.98
2022-11-14T01:05:45.318Z,21.02
2022-11-14T01:08:31.519Z,17.52
2022-11-14T01:11:19.570Z,18.10
2022-11-14T01:14:08.425Z,18.73
2022-11-14T01:16:54.196Z,18.60
2022-11-14T01:19:39.535Z,19.15
2022-11-14T01:22:24.946Z,19.05
2022-11-14T01:25:10.833Z,18.63
2022-11-14T01:27:56.799Z,19.35
2022-11-14T01:30:42.714Z,20.58
2022-11-14T01:33:28.302Z,19.92
2022-11-14T01:36:14.315Z,17.23
2022-11-14T01:39:00.187Z,16.67
2022-11-14T01:41:45.516Z,16.55
2022-11-14T01:44:52.335Z,16.90
2022-11-14T01:47:38.009Z,16.23
2022-11-14T01:50:23.936Z,15.85
2022-11-14T01:53:09.953Z,14.77
2022-11-14T01:55:57.655Z,14.35
2022-11-14T01:58:47.389Z,14.85
2022-11-14T02:01:36.111Z,14.32
2022-11-14T02:04:30.666Z,14.38
2022-11-14T02:07:16.438Z,14.23
2022-11-14T02:10:24.932Z,14.73
2022-11-14T02:13:10.808Z,14.73
2022-11-14T02:15:56.703Z,13.73
2022-11-14T02:18:42.685Z,13.35
2022-11-14T02:21:28.654Z,13.20
2022-11-14T02:24:14.516Z,13.48
2022-11-14T02:27:00.605Z,13.20
2022-11-14T02:29:46.312Z,13.68
2022-11-14T02:32:45.072Z,13.35
2022-11-14T02:35:38.003Z,12.18
2022-11-14T02:38:23.939Z,12.30
2022-11-14T02:41:09.846Z,12.15
2022-11-14T02:43:55.865Z,12.73
2022-11-14T02:46:41.744Z,12.60
2022-11-14T02:49:28.562Z,12.32
2022-11-14T02:52:14.261Z,12.57
2022-11-14T02:55:00.023Z,12.20
2022-11-14T02:57:45.887Z,12.43
2022-11-14T03:00:31.869Z,12.43
2022-11-14T03:03:17.750Z,13.15
2022-11-14T03:06:04.196Z,12.25
2022-11-14T03:08:49.952Z,12.20
2022-11-14T03:11:36.005Z,12.45
2022-11-14T03:14:22.110Z,12.40
2022-11-14T03:17:07.919Z,11.70
2022-11-14T03:19:53.949Z,11.82
2022-11-14T03:22:39.757Z,12.43
2022-11-14T03:25:25.676Z,11.65
2022-11-14T03:28:11.600Z,12.50
2022-11-14T03:30:57.449Z,12.55
2022-11-14T03:33:43.558Z,12.23
2022-11-14T03:36:29.569Z,13.40
2022-11-14T03:39:15.425Z,12.25
2022-11-14T03:42:01.447Z,12.32
2022-11-14T03:44:47.313Z,13.88
2022-11-14T03:47:33.223Z,12.55
2022-11-14T03:50:19.318Z,12.23
2022-11-14T03:53:05.116Z,11.57
2022-11-14T03:55:51.808Z,12.13
2022-11-14T03:58:37.541Z,13.05
2022-11-14T04:01:23.435Z,12.32
2022-11-14T04:04:13.600Z,11.95
2022-11-14T04:06:59.756Z,12.93
2022-11-14T04:09:47.068Z,13.27
2022-11-14T04:12:33.200Z,12.25
2022-11-14T04:15:19.463Z,13.48
2022-11-14T04:18:05.339Z,13.20
2022-11-14T04:20:51.923Z,13.30
2022-11-14T04:23:37.733Z,13.07
2022-11-14T04:26:23.647Z,12.70
2022-11-14T04:29:09.608Z,12.70
2022-11-14T04:31:55.089Z,13.45
2022-11-14T04:34:41.005Z,13.30
2022-11-14T04:37:26.577Z,12.90
2022-11-14T04:40:12.273Z,13.30
2022-11-14T04:42:57.806Z,11.65
2022-11-14T04:45:43.699Z,11.90
2022-11-14T04:48:29.777Z,11.73
2022-11-14T04:51:15.649Z,11.80
2022-11-14T04:54:01.626Z,10.98
2022-11-14T04:56:47.581Z,11.52
2022-11-14T04:59:33.649Z,11.15
2022-11-14T05:02:19.254Z,11.82
2022-11-14T05:05:05.517Z,11.20
2022-11-14T05:07:51.410Z,12.07
2022-11-14T05:10:37.445Z,11.57
2022-11-14T05:13:23.566Z,11.85
2022-11-14T05:16:09.312Z,12.10
2022-11-14T05:18:55.484Z,11.38
2022-11-14T05:21:41.476Z,12.57
2022-11-14T05:24:28.497Z,11.95
2022-11-14T05:27:14.367Z,12.70
2022-11-14T05:30:00.336Z,12.45
2022-11-14T05:32:45.854Z,12.55
2022-11-14T05:35:31.740Z,12.80
2022-11-14T05:38:17.222Z,12.95
2022-11-14T05:41:20.136Z,13.32
2022-11-14T05:44:06.096Z,13.45
2022-11-14T05:46:51.638Z,12.27
2022-11-14T05:49:37.547Z,14.23
2022-11-14T05:52:23.518Z,13.60
2022-11-14T05:55:09.600Z,13.55
2022-11-14T05:57:58.540Z,12.52
2022-11-14T06:00:51.971Z,13.05
2022-11-14T06:03:41.445Z,12.35
2022-11-14T06:06:27.096Z,12.40
2022-11-14T06:09:13.018Z,12.02
2022-11-14T06:11:59.093Z,12.00
2022-11-14T06:14:45.082Z,11.70
2022-11-14T06:17:31.079Z,12.32
2022-11-14T06:20:17.122Z,12.32
2022-11-14T06:23:02.940Z,11.65
2022-11-14T06:25:49.017Z,11.35
2022-11-14T06:28:34.909Z,11.57
2022-11-14T06:31:21.101Z,12.00
2022-11-14T06:34:07.121Z,13.00
2022-11-14T06:36:53.100Z,12.30
2022-11-14T06:39:38.923Z,11.73
2022-11-14T06:42:24.873Z,12.10
2022-11-14T06:45:10.843Z,12.55
2022-11-14T06:48:00.028Z,11.30
2022-11-14T06:50:54.551Z,11.60
2022-11-14T06:53:40.297Z,11.18
2022-11-14T06:56:26.016Z,11.98
2022-11-14T06:59:11.989Z,12.05
2022-11-14T07:01:57.953Z,11.27
2022-11-14T07:04:43.763Z,11.15
2022-11-14T07:07:29.838Z,11.10
2022-11-14T07:10:16.061Z,10.88
2022-11-14T07:13:01.663Z,11.35
2022-11-14T07:15:54.060Z,11.02
2022-11-14T07:18:39.992Z,11.73
2022-11-14T07:21:26.522Z,11.93
2022-11-14T07:24:12.332Z,12.45
2022-11-14T07:26:57.916Z,12.10
2022-11-14T07:29:43.857Z,11.77
2022-11-14T07:32:29.988Z,12.75
2022-11-14T07:35:15.941Z,13.77
2022-11-14T07:38:04.618Z,12.77
2022-11-14T07:41:00.891Z,12.80
2022-11-14T07:43:46.485Z,11.65
2022-11-14T07:46:32.392Z,12.07
2022-11-14T07:49:18.405Z,11.98
2022-11-14T07:52:04.494Z,13.02
2022-11-14T07:54:50.292Z,15.02
2022-11-14T07:57:41.073Z,14.02
2022-11-14T08:00:28.689Z,15.18
2022-11-14T08:03:14.653Z,16.55
2022-11-14T08:06:11.193Z,16.23
2022-11-14T08:08:57.246Z,15.82
2022-11-14T08:11:48.441Z,16.08
2022-11-14T08:14:34.571Z,15.32
2022-11-14T08:17:21.405Z,15.05
2022-11-14T08:20:08.026Z,16.83
2022-11-14T08:23:03.748Z,15.18
2022-11-14T08:25:49.491Z,16.90
2022-11-14T08:28:35.495Z,15.38
2022-11-14T08:31:21.801Z,16.45
2022-11-14T08:34:07.920Z,16.33
2022-11-14T08:36:53.715Z,15.95
2022-11-14T08:39:39.997Z,17.20
2022-11-14T08:42:25.885Z,16.63
2022-11-14T08:45:11.561Z,16.70
2022-11-14T08:47:57.617Z,17.25
2022-11-14T08:50:43.456Z,17.20
2022-11-14T08:53:29.713Z,16.23
2022-11-14T08:56:15.589Z,16.10
2022-11-14T08:59:04.021Z,15.55
2022-11-14T09:01:49.687Z,13.80
2022-11-14T09:04:35.242Z,13.70
2022-11-14T09:07:21.130Z,13.50
2022-11-14T09:10:08.257Z,12.65
2022-11-14T09:12:57.826Z,12.38
2022-11-14T09:15:43.966Z,12.85
2022-11-14T09:18:31.237Z,12.32
2022-11-14T09:21:20.894Z,11.70
2022-11-14T09:24:06.875Z,13.18
2022-11-14T09:26:56.762Z,13.10
2022-11-14T09:29:42.886Z,13.15
2022-11-14T09:32:28.975Z,13.95
2022-11-14T09:35:14.767Z,15.32
2022-11-14T09:38:08.468Z,15.13
2022-11-14T09:41:38.836Z,17.25
2022-11-14T09:44:45.701Z,17.55
2022-11-14T09:47:39.077Z,16.73
2022-11-14T09:50:30.625Z,16.70
2022-11-14T09:53:24.320Z,15.88
2022-11-14T09:56:14.278Z,17.05
2022-11-14T09:58:59.961Z,17.15
2022-11-14T10:02:04.540Z,15.38
2022-11-14T10:05:11.340Z,15.30
2022-11-14T10:08:31.989Z,14.55
2022-11-14T10:11:29.354Z,14.45
2022-11-14T10:14:41.452Z,15.82
2022-11-14T10:17:39.329Z,14.40
2022-11-14T10:20:37.233Z,15.32
2022-11-14T10:23:51.507Z,14.10
2022-11-14T10:26:42.233Z,14.43
2022-11-14T10:29:50.672Z,14.90
2022-11-14T10:32:42.327Z,13.85
2022-11-14T10:35:36.486Z,15.18
2022-11-14T10:38:41.391Z,14.18
2022-11-14T10:44:38.760Z,14.98
2022-11-14T10:47:24.656Z,14.32
2022-11-14T10:50:21.589Z,13.13
2022-11-14T10:53:11.119Z,13.18
2022-11-14T10:56:04.069Z,12.43
2022-11-14T10:58:51.213Z,14.02
2022-11-14T11:01:41.002Z,13.55
2022-11-14T11:04:31.374Z,12.95
2022-11-14T11:07:43.540Z,12.70
2022-11-14T11:10:47.966Z,13.45
2022-11-14T11:13:40.061Z,14.23
2022-11-14T11:16:26.861Z,16.55
2022-11-14T11:19:30.897Z,16.27
2022-11-14T11:22:27.386Z,15.93
2022-11-14T11:25:26.243Z,16.35
2022-11-14T11:28:18.761Z,13.80
2022-11-14T11:31:06.877Z,13.68
2022-11-14T11:33:52.727Z,13.35
2022-11-14T11:36:46.507Z,12.95
2022-11-14T11:39:40.429Z,12.43
2022-11-14T11:43:36.633Z,11.77
2022-11-14T11:46:00.005Z,10.63
2022-11-14T11:48:46.542Z,11.43
2022-11-14T11:51:32.610Z,11.48
2022-11-14T11:54:20.017Z,11.20
2022-11-14T11:57:13.994Z,11.00
2022-11-14T12:00:23.320Z,10.32
2022-11-14T12:03:13.608Z,10.55
2022-11-14T12:06:25.345Z,10.57
2022-11-14T12:09:29.543Z,10.10
2022-11-14T12:13:01.043Z,10.50
2022-11-14T12:15:54.757Z,10.27
2022-11-14T12:18:53.652Z,10.45
2022-11-14T12:22:02.366Z,10.32
2022-11-14T12:25:20.286Z,9.85
2022-11-14T12:28:19.512Z,9.35
2022-11-14T12:31:05.917Z,9.38
2022-11-14T12:33:59.456Z,9.00
2022-11-14T12:36:46.197Z,7.70
2022-11-14T12:39:32.918Z,8.60
2022-11-14T12:42:20.236Z,8.10
2022-11-14T12:45:40.860Z,7.72
2022-11-14T12:48:26.637Z,8.10
2022-11-14T12:51:25.527Z,7.53
2022-11-14T12:54:42.475Z,7.78
2022-11-14T12:57:47.660Z,7.90
2022-11-14T13:00:45.621Z,7.93
2022-11-14T13:03:41.602Z,7.45
2022-11-14T13:06:39.342Z,7.40
2022-11-14T13:09:33.681Z,7.80
2022-11-14T13:12:47.615Z,7.33
2022-11-14T13:16:06.205Z,7.03
2022-11-14T13:19:13.954Z,6.72
2022-11-14T13:22:12.124Z,6.65
2022-11-14T13:25:01.240Z,7.45
2022-11-14T13:31:21.165Z,6.03
2022-11-14T13:34:38.277Z,6.03
2022-11-14T13:37:45.316Z,6.30
2022-11-14T13:41:08.581Z,5.45
2022-11-14T13:44:26.761Z,5.72
2022-11-14T13:47:18.608Z,6.93
2022-11-14T13:50:17.906Z,6.53
2022-11-14T13:53:17.891Z,6.53
2022-11-14T13:56:06.970Z,6.47
2022-11-14T13:59:34.931Z,6.28
2022-11-14T14:02:44.483Z,6.25
2022-11-14T14:05:45.194Z,6.40
2022-11-14T14:09:10.930Z,6.28
2022-11-14T14:14:45.608Z,6.85
2022-11-14T14:17:53.629Z,6.93
2022-11-14T14:20:45.814Z,6.50
2022-11-14T14:23:59.442Z,7.13
2022-11-14T14:27:02.875Z,7.18
2022-11-14T14:29:55.698Z,6.72
2022-11-14T14:32:41.514Z,6.78
2022-11-14T14:35:40.231Z,7.75
2022-11-14T14:38:27.961Z,7.78
2022-11-14T14:41:14.605Z,7.25
2022-11-14T14:44:00.232Z,7.55
2022-11-14T14:46:46.448Z,8.20
2022-11-14T14:49:35.072Z,7.90
2022-11-14T14:52:27.426Z,8.10
2022-11-14T14:55:23.539Z,7.93
2022-11-14T14:58:34.037Z,7.60
2022-11-14T15:01:35.350Z,7.40
2022-11-14T15:04:22.041Z,7.10
2022-11-14T15:07:21.292Z,8.00
2022-11-14T15:10:10.161Z,8.68
2022-11-14T15:12:56.684Z,8.07
2022-11-14T15:15:42.883Z,9.60
2022-11-14T15:18:30.798Z,7.75
2022-11-14T15:21:20.285Z,8.20
2022-11-14T15:24:20.113Z,8.60
2022-11-14T15:27:26.429Z,8.45
2022-11-14T15:30:25.510Z,7.93
2022-11-14T15:33:33.984Z,7.82
2022-11-14T15:36:19.684Z,8.70
2022-11-14T15:39:21.724Z,8.23
2022-11-14T15:42:26.538Z,8.30
2022-11-14T15:45:22.684Z,8.25
2022-11-14T15:48:16.408Z,8.93
2022-11-14T15:51:02.206Z,9.30
2022-11-14T15:53:49.278Z,8.57
2022-11-14T15:56:35.359Z,8.23
2022-11-14T15:59:21.407Z,9.68
2022-11-14T16:02:21.007Z,8.90
2022-11-14T16:08:10.450Z,9.52
2022-11-14T16:10:56.505Z,9.45
2022-11-14T16:13:42.068Z,10.07
2022-11-14T16:16:28.956Z,10.07
2022-11-14T16:19:15.610Z,10.32
2022-11-14T16:22:02.920Z,9.88
2022-11-14T16:24:48.863Z,9.55
2022-11-14T16:27:34.715Z,9.88
2022-11-14T16:30:20.899Z,9.48
2022-11-14T16:33:08.389Z,10.55
2022-11-14T16:35:54.427Z,9.43
2022-11-14T16:38:40.094Z,9.60
2022-11-14T16:41:25.719Z,9.82
2022-11-14T16:44:18.660Z,9.77
2022-11-14T16:47:04.559Z,9.95
2022-11-14T16:49:50.276Z,9.80
2022-11-14T16:52:39.129Z,9.40
2022-11-14T16:55:24.955Z,9.75
2022-11-14T16:58:10.667Z,9.57
2022-11-14T17:00:56.421Z,9.50
2022-11-14T17:03:42.595Z,9.80
2022-11-14T17:06:28.877Z,9.98
2022-11-14T17:09:14.746Z,9.57
2022-11-14T17:12:00.539Z,9.23
2022-11-14T17:14:46.303Z,9.00
2022-11-14T17:17:32.109Z,9.18
2022-11-14T17:20:18.070Z,10.77
2022-11-14T17:26:07.987Z,8.65
2022-11-14T17:28:54.065Z,8.15
2022-11-14T17:31:44.426Z,8.20
2022-11-14T17:34:32.397Z,8.35
2022-11-14T17:37:18.507Z,8.52
2022-11-14T17:40:05.459Z,8.77
2022-11-14T17:42:52.338Z,8.35
2022-11-14T17:45:41.190Z,7.88
2022-11-14T17:48:26.930Z,8.38
2022-11-14T17:51:13.636Z,8.57
2022-11-14T17:53:59.585Z,8.50
2022-11-14T17:56:49.652Z,7.95
2022-11-14T17:59:41.255Z,8.10
2022-11-14T18:02:28.057Z,7.88
2022-11-14T18:05:14.083Z,7.70
2022-11-14T18:07:59.807Z,7.43
2022-11-14T18:10:45.595Z,7.53
2022-11-14T18:13:31.458Z,7.05
2022-11-14T18:16:18.060Z,6.97
2022-11-14T18:19:04.431Z,7.05
2022-11-14T18:21:53.427Z,6.78
2022-11-14T18:24:43.273Z,6.90
2022-11-14T18:27:29.106Z,6.40
2022-11-14T18:30:39.886Z,7.03
2022-11-14T18:33:21.188Z,7.63
2022-11-14T18:36:13.330Z,7.18
2022-11-14T18:38:59.067Z,6.93
2022-11-14T18:41:44.794Z,7.43
2022-11-14T18:44:30.605Z,7.78
2022-11-14T18:47:16.672Z,7.00
2022-11-14T18:50:09.272Z,7.28
2022-11-14T18:52:55.156Z,7.38
2022-11-14T18:55:41.317Z,6.80
2022-11-14T18:58:27.072Z,7.43
2022-11-14T19:01:26.424Z,8.10
2022-11-14T19:04:12.980Z,7.72
2022-11-14T19:06:58.966Z,7.95
2022-11-14T19:09:44.983Z,8.07
2022-11-14T19:12:30.752Z,7.88
2022-11-14T19:15:16.767Z,7.82
2022-11-14T19:18:02.531Z,8.18
2022-11-14T19:21:02.246Z,7.55
2022-11-14T19:23:48.444Z,7.68
2022-11-14T19:26:34.294Z,8.00
2022-11-14T19:29:19.994Z,7.47
2022-11-14T19:32:06.032Z,8.23
2022-11-14T19:34:52.126Z,7.93
2022-11-14T19:37:38.164Z,8.90
2022-11-14T19:40:23.896Z,8.77
2022-11-14T19:43:11.472Z,8.68
2022-11-14T19:46:02.165Z,8.65
2022-11-14T19:48:48.800Z,8.80
2022-11-14T19:51:34.547Z,8.05
2022-11-14T19:54:20.459Z,8.68
2022-11-14T19:57:06.188Z,8.25
2022-11-14T19:59:52.436Z,8.13
2022-11-14T20:02:40.415Z,9.10
2022-11-14T20:05:26.074Z,9.02
2022-11-14T20:08:11.731Z,8.88
2022-11-14T20:11:04.799Z,9.07
2022-11-14T20:13:50.674Z,9.63
2022-11-14T20:16:36.829Z,9.40
2022-11-14T20:22:22.162Z,8.85
2022-11-14T20:25:08.606Z,8.82
2022-11-14T20:27:54.352Z,8.48
2022-11-14T20:30:40.182Z,8.40
2022-11-14T20:33:26.127Z,8.40
2022-11-14T20:36:16.990Z,8.38
2022-11-14T20:39:02.857Z,7.93
2022-11-14T20:41:48.646Z,8.27
2022-11-14T20:44:34.389Z,7.70
2022-11-14T20:47:20.035Z,7.97
2022-11-14T20:50:06.233Z,7.72
2022-11-14T20:52:52.220Z,7.78
2022-11-14T20:55:37.911Z,7.82
2022-11-14T20:58:23.622Z,7.57
2022-11-14T21:01:09.642Z,8.68
2022-11-14T21:03:55.771Z,7.88
2022-11-14T21:06:41.626Z,8.60
2022-11-14T21:09:27.375Z,7.82
2022-11-14T21:12:13.143Z,8.15
2022-11-14T21:14:59.172Z,8.02
2022-11-14T21:17:44.928Z,8.38
2022-11-14T21:20:31.041Z,8.40
2022-11-14T21:23:16.769Z,8.80
2022-11-14T21:26:06.833Z,8.48
2022-11-14T21:29:01.638Z,8.60
2022-11-14T21:31:48.094Z,7.53
2022-11-14T21:34:34.286Z,8.13
2022-11-14T21:37:19.960Z,8.02
2022-11-14T21:40:07.185Z,8.02
2022-11-14T21:42:53.256Z,8.00
2022-11-14T21:45:38.869Z,7.93
2022-11-14T21:48:26.150Z,8.20
2022-11-14T21:51:20.607Z,7.68
2022-11-14T21:54:06.758Z,9.05
2022-11-14T21:56:52.610Z,7.43
2022-11-14T21:59:38.755Z,7.55
2022-11-14T22:02:43.227Z,7.43
2022-11-14T22:05:29.050Z,7.80
2022-11-14T22:08:15.823Z,7.65
2022-11-14T22:11:02.078Z,7.20
2022-11-14T22:13:48.050Z,7.65
2022-11-14T22:16:34.134Z,7.47
2022-11-14T22:19:19.994Z,6.90
2022-11-14T22:22:05.607Z,7.00
2022-11-14T22:24:52.346Z,6.90
2022-11-14T22:27:39.103Z,7.38
2022-11-14T22:30:25.096Z,7.20
2022-11-14T22:33:10.910Z,6.95
2022-11-14T22:36:02.135Z,6.97
2022-11-14T22:38:48.309Z,7.63
2022-11-14T22:41:34.462Z,7.00
2022-11-14T22:44:20.301Z,7.75
2022-11-14T22:47:06.373Z,7.00
2022-11-14T22:49:52.731Z,7.07
2022-11-14T22:52:38.936Z,6.82
2022-11-14T22:55:24.687Z,7.20
2022-11-14T22:58:10.788Z,6.38
2022-11-14T23:00:56.351Z,6.15
2022-11-14T23:03:42.400Z,6.63
2022-11-14T23:06:28.320Z,6.32
2022-11-14T23:09:13.945Z,6.57
2022-11-14T23:11:59.907Z,6.43
2022-11-14T23:14:45.640Z,7.00
2022-11-14T23:17:31.611Z,6.32
2022-11-14T23:20:17.776Z,6.57
2022-11-14T23:23:05.334Z,6.35
2022-11-14T23:25:51.330Z,6.22
2022-11-14T23:28:37.330Z,5.72
2022-11-14T23:31:25.253Z,6.22
2022-11-14T23:34:10.997Z,6.00
2022-11-14T23:36:56.853Z,6.50
2022-11-14T23:39:42.397Z,6.43
2022-11-14T23:42:28.143Z,6.50
2022-11-14T23:45:14.069Z,6.35
2022-11-14T23:47:59.796Z,5.90
2022-11-14T23:50:49.030Z,6.00
2022-11-14T23:53:34.935Z,6.18
2022-11-14T23:56:20.730Z,5.80
2022-11-14T23:59:06.823Z,6.72
